sensor_id;sensor_type;location;lat;lon;timestamp;temperature;humidity
24902;DHT22;31328;51.402;0.016;2023-07-20T00:01:33;18.20;88.70
24902;DHT22;31328;51.402;0.016;2023-07-20T00:03:59;18.10;88.80
24902;DHT22;31328;51.402;0.016;2023-07-20T00:06:25;18.10;89.10
24902;DHT22;31328;51.402;0.016;2023-07-20T00:08:54;18.00;89.20
24902;DHT22;31328;51.402;0.016;2023-07-20T00:11:21;18.00;89.30
24902;DHT22;31328;51.402;0.016;2023-07-20T00:13:47;18.00;89.30
24902;DHT22;31328;51.402;0.016;2023-07-20T00:16:13;17.90;89.40
24902;DHT22;31328;51.402;0.016;2023-07-20T00:18:39;17.90;89.60
24902;DHT22;31328;51.402;0.016;2023-07-20T00:21:05;17.90;89.60
24902;DHT22;31328;51.402;0.016;2023-07-20T00:23:31;17.90;89.60
24902;DHT22;31328;51.402;0.016;2023-07-20T00:25:57;17.80;89.60
24902;DHT22;31328;51.402;0.016;2023-07-20T00:28:23;17.80;89.80
24902;DHT22;31328;51.402;0.016;2023-07-20T00:30:50;17.80;90.00
24902;DHT22;31328;51.402;0.016;2023-07-20T00:33:16;17.80;90.00
24902;DHT22;31328;51.402;0.016;2023-07-20T00:35:43;17.70;90.00
24902;DHT22;31328;51.402;0.016;2023-07-20T00:38:09;17.70;90.00
24902;DHT22;31328;51.402;0.016;2023-07-20T00:40:36;17.60;90.10
24902;DHT22;31328;51.402;0.016;2023-07-20T00:43:03;17.60;90.10
24902;DHT22;31328;51.402;0.016;2023-07-20T00:45:29;17.50;90.20
24902;DHT22;31328;51.402;0.016;2023-07-20T00:47:55;17.50;90.20
24902;DHT22;31328;51.402;0.016;2023-07-20T00:50:22;17.40;90.30
24902;DHT22;31328;51.402;0.016;2023-07-20T00:52:48;17.30;90.40
24902;DHT22;31328;51.402;0.016;2023-07-20T00:55:15;17.30;90.50
24902;DHT22;31328;51.402;0.016;2023-07-20T00:57:41;17.20;90.60
24902;DHT22;31328;51.402;0.016;2023-07-20T01:00:07;17.20;90.60
24902;DHT22;31328;51.402;0.016;2023-07-20T01:02:33;17.20;90.70
24902;DHT22;31328;51.402;0.016;2023-07-20T01:05:00;17.10;90.70
24902;DHT22;31328;51.402;0.016;2023-07-20T01:07:27;17.10;90.80
24902;DHT22;31328;51.402;0.016;2023-07-20T01:10:08;17.00;90.80
24902;DHT22;31328;51.402;0.016;2023-07-20T01:12:43;17.00;90.90
24902;DHT22;31328;51.402;0.016;2023-07-20T01:15:10;17.00;90.90
24902;DHT22;31328;51.402;0.016;2023-07-20T01:17:36;16.90;90.90
24902;DHT22;31328;51.402;0.016;2023-07-20T01:20:02;16.90;91.00
24902;DHT22;31328;51.402;0.016;2023-07-20T01:25:21;16.80;91.10
24902;DHT22;31328;51.402;0.016;2023-07-20T01:33:04;16.60;91.20
24902;DHT22;31328;51.402;0.016;2023-07-20T01:35:32;16.60;91.30
24902;DHT22;31328;51.402;0.016;2023-07-20T01:37:58;16.50;91.30
24902;DHT22;31328;51.402;0.016;2023-07-20T01:40:25;16.50;91.30
24902;DHT22;31328;51.402;0.016;2023-07-20T01:42:52;16.50;91.40
24902;DHT22;31328;51.402;0.016;2023-07-20T01:45:19;16.50;91.40
24902;DHT22;31328;51.402;0.016;2023-07-20T01:47:45;16.50;91.50
24902;DHT22;31328;51.402;0.016;2023-07-20T01:50:11;16.50;91.50
24902;DHT22;31328;51.402;0.016;2023-07-20T01:52:37;16.50;91.50
24902;DHT22;31328;51.402;0.016;2023-07-20T01:55:04;16.50;91.50
24902;DHT22;31328;51.402;0.016;2023-07-20T01:57:31;16.50;91.50
24902;DHT22;31328;51.402;0.016;2023-07-20T01:59:57;16.50;91.50
24902;DHT22;31328;51.402;0.016;2023-07-20T02:02:26;16.50;91.50
24902;DHT22;31328;51.402;0.016;2023-07-20T02:04:52;16.50;91.60
24902;DHT22;31328;51.402;0.016;2023-07-20T02:07:18;16.50;91.60
24902;DHT22;31328;51.402;0.016;2023-07-20T02:09:44;16.50;91.60
24902;DHT22;31328;51.402;0.016;2023-07-20T02:12:10;16.50;91.60
24902;DHT22;31328;51.402;0.016;2023-07-20T02:14:36;16.50;91.70
24902;DHT22;31328;51.402;0.016;2023-07-20T02:17:03;16.50;91.70
24902;DHT22;31328;51.402;0.016;2023-07-20T02:19:29;16.50;91.70
24902;DHT22;31328;51.402;0.016;2023-07-20T02:21:56;16.40;91.80
24902;DHT22;31328;51.402;0.016;2023-07-20T02:24:22;16.40;91.80
24902;DHT22;31328;51.402;0.016;2023-07-20T02:26:48;16.40;91.90
24902;DHT22;31328;51.402;0.016;2023-07-20T02:29:14;16.40;91.90
24902;DHT22;31328;51.402;0.016;2023-07-20T02:31:40;16.30;91.90
24902;DHT22;31328;51.402;0.016;2023-07-20T02:34:08;16.30;92.00
24902;DHT22;31328;51.402;0.016;2023-07-20T02:36:35;16.20;92.30
24902;DHT22;31328;51.402;0.016;2023-07-20T02:39:01;16.20;92.10
24902;DHT22;31328;51.402;0.016;2023-07-20T02:41:30;16.20;92.20
24902;DHT22;31328;51.402;0.016;2023-07-20T02:43:57;16.10;92.20
24902;DHT22;31328;51.402;0.016;2023-07-20T02:46:23;16.10;92.30
24902;DHT22;31328;51.402;0.016;2023-07-20T02:48:49;16.10;92.30
24902;DHT22;31328;51.402;0.016;2023-07-20T02:51:15;16.10;92.40
24902;DHT22;31328;51.402;0.016;2023-07-20T02:53:42;16.10;92.40
24902;DHT22;31328;51.402;0.016;2023-07-20T02:56:08;16.10;92.40
24902;DHT22;31328;51.402;0.016;2023-07-20T02:58:34;16.10;92.50
24902;DHT22;31328;51.402;0.016;2023-07-20T03:01:03;16.20;92.50
24902;DHT22;31328;51.402;0.016;2023-07-20T03:03:29;16.20;92.40
24902;DHT22;31328;51.402;0.016;2023-07-20T03:05:55;16.20;92.40
24902;DHT22;31328;51.402;0.016;2023-07-20T03:08:23;16.20;92.40
24902;DHT22;31328;51.402;0.016;2023-07-20T03:10:50;16.20;92.40
24902;DHT22;31328;51.402;0.016;2023-07-20T03:13:16;16.20;92.50
24902;DHT22;31328;51.402;0.016;2023-07-20T03:15:42;16.20;92.50
24902;DHT22;31328;51.402;0.016;2023-07-20T03:18:09;16.30;92.70
24902;DHT22;31328;51.402;0.016;2023-07-20T03:20:35;16.30;92.70
24902;DHT22;31328;51.402;0.016;2023-07-20T03:23:01;16.30;92.70
24902;DHT22;31328;51.402;0.016;2023-07-20T03:25:28;16.40;92.70
24902;DHT22;31328;51.402;0.016;2023-07-20T03:27:54;16.40;92.70
24902;DHT22;31328;51.402;0.016;2023-07-20T03:30:20;16.40;92.80
24902;DHT22;31328;51.402;0.016;2023-07-20T03:32:46;16.40;92.80
24902;DHT22;31328;51.402;0.016;2023-07-20T03:35:12;16.40;92.90
24902;DHT22;31328;51.402;0.016;2023-07-20T03:37:38;16.40;92.90
24902;DHT22;31328;51.402;0.016;2023-07-20T03:40:05;16.40;92.90
24902;DHT22;31328;51.402;0.016;2023-07-20T03:42:33;16.40;92.90
24902;DHT22;31328;51.402;0.016;2023-07-20T03:44:59;16.30;92.90
24902;DHT22;31328;51.402;0.016;2023-07-20T03:47:25;16.30;92.90
24902;DHT22;31328;51.402;0.016;2023-07-20T03:49:52;16.30;93.00
24902;DHT22;31328;51.402;0.016;2023-07-20T03:52:18;16.30;93.10
24902;DHT22;31328;51.402;0.016;2023-07-20T03:54:44;16.20;93.10
24902;DHT22;31328;51.402;0.016;2023-07-20T03:57:10;16.20;93.30
24902;DHT22;31328;51.402;0.016;2023-07-20T03:59:37;16.20;93.40
24902;DHT22;31328;51.402;0.016;2023-07-20T04:02:03;16.20;93.30
24902;DHT22;31328;51.402;0.016;2023-07-20T04:04:31;16.20;93.40
24902;DHT22;31328;51.402;0.016;2023-07-20T04:06:57;16.20;93.40
24902;DHT22;31328;51.402;0.016;2023-07-20T04:09:23;16.20;93.50
24902;DHT22;31328;51.402;0.016;2023-07-20T04:11:49;16.10;93.50
24902;DHT22;31328;51.402;0.016;2023-07-20T04:14:15;16.10;93.60
24902;DHT22;31328;51.402;0.016;2023-07-20T04:16:41;16.00;93.60
24902;DHT22;31328;51.402;0.016;2023-07-20T04:19:07;16.00;93.60
24902;DHT22;31328;51.402;0.016;2023-07-20T04:21:39;16.00;93.70
24902;DHT22;31328;51.402;0.016;2023-07-20T04:24:05;16.00;93.80
24902;DHT22;31328;51.402;0.016;2023-07-20T04:26:32;15.90;93.90
24902;DHT22;31328;51.402;0.016;2023-07-20T04:28:58;15.90;93.90
24902;DHT22;31328;51.402;0.016;2023-07-20T04:31:39;15.80;94.00
24902;DHT22;31328;51.402;0.016;2023-07-20T04:34:05;15.80;94.10
24902;DHT22;31328;51.402;0.016;2023-07-20T04:36:34;15.80;94.10
24902;DHT22;31328;51.402;0.016;2023-07-20T04:39:00;15.70;94.10
24902;DHT22;31328;51.402;0.016;2023-07-20T04:41:33;15.70;94.20
24902;DHT22;31328;51.402;0.016;2023-07-20T04:44:00;15.70;94.30
24902;DHT22;31328;51.402;0.016;2023-07-20T04:46:28;15.70;94.40
24902;DHT22;31328;51.402;0.016;2023-07-20T04:48:56;15.60;94.30
24902;DHT22;31328;51.402;0.016;2023-07-20T04:51:23;15.60;94.40
24902;DHT22;31328;51.402;0.016;2023-07-20T04:53:53;15.60;94.40
24902;DHT22;31328;51.402;0.016;2023-07-20T04:56:19;15.60;94.50
24902;DHT22;31328;51.402;0.016;2023-07-20T04:58:46;15.50;94.50
24902;DHT22;31328;51.402;0.016;2023-07-20T05:01:13;15.50;94.50
24902;DHT22;31328;51.402;0.016;2023-07-20T05:03:39;15.50;94.60
24902;DHT22;31328;51.402;0.016;2023-07-20T05:06:07;15.50;94.60
24902;DHT22;31328;51.402;0.016;2023-07-20T05:08:33;15.50;94.70
24902;DHT22;31328;51.402;0.016;2023-07-20T05:11:00;15.50;94.70
24902;DHT22;31328;51.402;0.016;2023-07-20T05:13:27;15.50;94.70
24902;DHT22;31328;51.402;0.016;2023-07-20T05:15:53;15.50;94.70
24902;DHT22;31328;51.402;0.016;2023-07-20T05:18:20;15.50;94.80
24902;DHT22;31328;51.402;0.016;2023-07-20T05:20:47;15.50;94.80
24902;DHT22;31328;51.402;0.016;2023-07-20T05:23:15;15.50;94.80
24902;DHT22;31328;51.402;0.016;2023-07-20T05:25:42;15.50;94.90
24902;DHT22;31328;51.402;0.016;2023-07-20T05:28:08;15.60;94.90
24902;DHT22;31328;51.402;0.016;2023-07-20T05:30:34;15.60;95.00
24902;DHT22;31328;51.402;0.016;2023-07-20T05:33:00;15.60;95.00
24902;DHT22;31328;51.402;0.016;2023-07-20T05:35:26;15.60;95.10
24902;DHT22;31328;51.402;0.016;2023-07-20T05:37:53;15.60;95.10
24902;DHT22;31328;51.402;0.016;2023-07-20T05:40:19;15.60;95.10
24902;DHT22;31328;51.402;0.016;2023-07-20T05:42:45;15.60;95.40
24902;DHT22;31328;51.402;0.016;2023-07-20T05:45:17;15.70;95.10
24902;DHT22;31328;51.402;0.016;2023-07-20T05:47:44;15.70;95.10
24902;DHT22;31328;51.402;0.016;2023-07-20T05:50:10;15.70;95.10
24902;DHT22;31328;51.402;0.016;2023-07-20T05:52:36;15.80;95.10
24902;DHT22;31328;51.402;0.016;2023-07-20T05:55:05;15.80;95.10
24902;DHT22;31328;51.402;0.016;2023-07-20T05:57:31;15.90;95.10
24902;DHT22;31328;51.402;0.016;2023-07-20T05:59:57;15.90;95.10
24902;DHT22;31328;51.402;0.016;2023-07-20T06:02:23;15.90;95.00
24902;DHT22;31328;51.402;0.016;2023-07-20T06:04:50;16.00;94.90
24902;DHT22;31328;51.402;0.016;2023-07-20T06:07:16;16.10;94.80
24902;DHT22;31328;51.402;0.016;2023-07-20T06:09:42;16.10;94.80
24902;DHT22;31328;51.402;0.016;2023-07-20T06:12:08;16.20;94.70
24902;DHT22;31328;51.402;0.016;2023-07-20T06:14:34;16.30;94.70
24902;DHT22;31328;51.402;0.016;2023-07-20T06:17:00;16.30;94.70
24902;DHT22;31328;51.402;0.016;2023-07-20T06:19:26;16.40;94.70
24902;DHT22;31328;51.402;0.016;2023-07-20T06:21:53;16.50;94.60
24902;DHT22;31328;51.402;0.016;2023-07-20T06:24:19;16.60;94.60
24902;DHT22;31328;51.402;0.016;2023-07-20T06:26:45;16.70;94.60
24902;DHT22;31328;51.402;0.016;2023-07-20T06:29:11;16.80;94.50
24902;DHT22;31328;51.402;0.016;2023-07-20T06:31:37;16.80;94.30
24902;DHT22;31328;51.402;0.016;2023-07-20T06:34:03;16.90;94.30
24902;DHT22;31328;51.402;0.016;2023-07-20T06:36:29;16.90;94.10
24902;DHT22;31328;51.402;0.016;2023-07-20T06:38:56;17.00;93.90
24902;DHT22;31328;51.402;0.016;2023-07-20T06:41:22;17.10;94.20
24902;DHT22;31328;51.402;0.016;2023-07-20T06:43:48;17.20;93.90
24902;DHT22;31328;51.402;0.016;2023-07-20T06:46:14;17.20;93.80
24902;DHT22;31328;51.402;0.016;2023-07-20T06:48:40;17.30;93.70
24902;DHT22;31328;51.402;0.016;2023-07-20T06:51:06;17.30;93.60
24902;DHT22;31328;51.402;0.016;2023-07-20T06:53:32;17.40;93.60
24902;DHT22;31328;51.402;0.016;2023-07-20T06:55:58;17.40;93.70
24902;DHT22;31328;51.402;0.016;2023-07-20T06:58:25;17.50;93.80
24902;DHT22;31328;51.402;0.016;2023-07-20T07:00:51;17.50;93.50
24902;DHT22;31328;51.402;0.016;2023-07-20T07:03:17;17.60;93.50
24902;DHT22;31328;51.402;0.016;2023-07-20T07:05:44;17.50;93.40
24902;DHT22;31328;51.402;0.016;2023-07-20T07:08:13;17.60;93.40
24902;DHT22;31328;51.402;0.016;2023-07-20T07:10:39;17.60;93.40
24902;DHT22;31328;51.402;0.016;2023-07-20T07:13:05;17.60;93.30
24902;DHT22;31328;51.402;0.016;2023-07-20T07:15:31;17.60;93.40
24902;DHT22;31328;51.402;0.016;2023-07-20T07:17:58;17.60;93.20
24902;DHT22;31328;51.402;0.016;2023-07-20T07:20:25;17.60;93.20
24902;DHT22;31328;51.402;0.016;2023-07-20T07:22:52;17.60;93.40
24902;DHT22;31328;51.402;0.016;2023-07-20T07:25:18;17.60;93.50
24902;DHT22;31328;51.402;0.016;2023-07-20T07:27:45;17.70;93.50
24902;DHT22;31328;51.402;0.016;2023-07-20T07:30:11;17.70;93.30
24902;DHT22;31328;51.402;0.016;2023-07-20T07:32:37;17.70;93.20
24902;DHT22;31328;51.402;0.016;2023-07-20T07:35:04;17.70;93.10
24902;DHT22;31328;51.402;0.016;2023-07-20T07:37:30;17.80;93.20
24902;DHT22;31328;51.402;0.016;2023-07-20T07:39:56;17.80;93.00
24902;DHT22;31328;51.402;0.016;2023-07-20T07:42:23;17.80;93.00
24902;DHT22;31328;51.402;0.016;2023-07-20T07:44:49;17.70;92.90
24902;DHT22;31328;51.402;0.016;2023-07-20T07:47:15;17.80;92.90
24902;DHT22;31328;51.402;0.016;2023-07-20T07:49:42;17.80;92.90
24902;DHT22;31328;51.402;0.016;2023-07-20T07:52:08;17.80;92.70
24902;DHT22;31328;51.402;0.016;2023-07-20T07:54:34;17.80;92.70
24902;DHT22;31328;51.402;0.016;2023-07-20T07:57:00;17.80;92.70
24902;DHT22;31328;51.402;0.016;2023-07-20T07:59:26;17.80;92.60
24902;DHT22;31328;51.402;0.016;2023-07-20T08:01:52;17.80;92.70
24902;DHT22;31328;51.402;0.016;2023-07-20T08:04:19;17.90;92.60
24902;DHT22;31328;51.402;0.016;2023-07-20T08:06:45;17.80;92.70
24902;DHT22;31328;51.402;0.016;2023-07-20T08:09:11;17.80;92.60
24902;DHT22;31328;51.402;0.016;2023-07-20T08:11:38;17.90;92.60
24902;DHT22;31328;51.402;0.016;2023-07-20T08:14:05;17.90;92.50
24902;DHT22;31328;51.402;0.016;2023-07-20T08:16:31;17.90;92.50
24902;DHT22;31328;51.402;0.016;2023-07-20T08:18:57;17.90;92.50
24902;DHT22;31328;51.402;0.016;2023-07-20T08:21:23;17.90;92.40
24902;DHT22;31328;51.402;0.016;2023-07-20T08:23:49;18.00;92.30
24902;DHT22;31328;51.402;0.016;2023-07-20T08:26:15;18.00;92.20
24902;DHT22;31328;51.402;0.016;2023-07-20T08:28:42;18.10;92.20
24902;DHT22;31328;51.402;0.016;2023-07-20T08:31:08;18.20;92.20
24902;DHT22;31328;51.402;0.016;2023-07-20T08:33:34;18.30;92.20
24902;DHT22;31328;51.402;0.016;2023-07-20T08:36:01;18.40;92.10
24902;DHT22;31328;51.402;0.016;2023-07-20T08:38:27;18.60;92.00
24902;DHT22;31328;51.402;0.016;2023-07-20T08:40:53;18.70;91.60
24902;DHT22;31328;51.402;0.016;2023-07-20T08:43:20;18.80;91.50
24902;DHT22;31328;51.402;0.016;2023-07-20T08:45:49;18.90;91.40
24902;DHT22;31328;51.402;0.016;2023-07-20T08:48:17;19.00;91.40
24902;DHT22;31328;51.402;0.016;2023-07-20T08:50:44;19.00;91.40
24902;DHT22;31328;51.402;0.016;2023-07-20T08:53:11;19.10;91.30
24902;DHT22;31328;51.402;0.016;2023-07-20T08:55:38;19.20;91.20
24902;DHT22;31328;51.402;0.016;2023-07-20T08:58:05;19.20;91.10
24902;DHT22;31328;51.402;0.016;2023-07-20T09:00:34;19.40;91.00
24902;DHT22;31328;51.402;0.016;2023-07-20T09:03:00;19.60;90.60
24902;DHT22;31328;51.402;0.016;2023-07-20T09:05:28;19.70;90.30
24902;DHT22;31328;51.402;0.016;2023-07-20T09:07:54;19.90;90.40
24902;DHT22;31328;51.402;0.016;2023-07-20T09:10:24;20.00;90.20
24902;DHT22;31328;51.402;0.016;2023-07-20T09:12:50;20.20;90.20
24902;DHT22;31328;51.402;0.016;2023-07-20T09:15:16;20.40;90.00
24902;DHT22;31328;51.402;0.016;2023-07-20T09:17:46;20.50;89.90
24902;DHT22;31328;51.402;0.016;2023-07-20T09:20:14;20.70;89.50
24902;DHT22;31328;51.402;0.016;2023-07-20T09:22:40;20.70;89.30
24902;DHT22;31328;51.402;0.016;2023-07-20T09:27:44;20.90;89.20
24902;DHT22;31328;51.402;0.016;2023-07-20T09:30:10;21.00;89.00
24902;DHT22;31328;51.402;0.016;2023-07-20T09:32:43;21.10;88.70
24902;DHT22;31328;51.402;0.016;2023-07-20T09:35:13;21.20;88.70
24902;DHT22;31328;51.402;0.016;2023-07-20T09:37:40;21.30;88.60
24902;DHT22;31328;51.402;0.016;2023-07-20T09:40:06;21.40;88.30
24902;DHT22;31328;51.402;0.016;2023-07-20T09:42:34;21.40;88.00
24902;DHT22;31328;51.402;0.016;2023-07-20T09:45:00;21.50;88.10
24902;DHT22;31328;51.402;0.016;2023-07-20T09:47:26;21.40;88.00
24902;DHT22;31328;51.402;0.016;2023-07-20T09:49:58;21.40;87.90
24902;DHT22;31328;51.402;0.016;2023-07-20T09:52:25;21.40;87.60
24902;DHT22;31328;51.402;0.016;2023-07-20T09:54:51;21.40;87.40
24902;DHT22;31328;51.402;0.016;2023-07-20T09:57:18;21.50;87.70
24902;DHT22;31328;51.402;0.016;2023-07-20T09:59:45;21.70;87.50
24902;DHT22;31328;51.402;0.016;2023-07-20T10:02:13;21.80;86.90
24902;DHT22;31328;51.402;0.016;2023-07-20T10:04:42;21.90;86.90
24902;DHT22;31328;51.402;0.016;2023-07-20T10:07:10;21.90;86.60
24902;DHT22;31328;51.402;0.016;2023-07-20T10:09:38;21.80;86.50
24902;DHT22;31328;51.402;0.016;2023-07-20T10:12:05;21.80;86.50
24902;DHT22;31328;51.402;0.016;2023-07-20T10:14:33;21.70;86.60
24902;DHT22;31328;51.402;0.016;2023-07-20T10:17:02;21.70;86.60
24902;DHT22;31328;51.402;0.016;2023-07-20T10:19:40;21.70;86.10
24902;DHT22;31328;51.402;0.016;2023-07-20T10:22:10;21.60;85.80
24902;DHT22;31328;51.402;0.016;2023-07-20T10:24:38;21.70;86.10
24902;DHT22;31328;51.402;0.016;2023-07-20T10:27:04;21.80;86.00
24902;DHT22;31328;51.402;0.016;2023-07-20T10:29:31;21.90;85.60
24902;DHT22;31328;51.402;0.016;2023-07-20T10:31:57;21.90;85.30
24902;DHT22;31328;51.402;0.016;2023-07-20T10:34:23;22.00;85.20
24902;DHT22;31328;51.402;0.016;2023-07-20T10:36:50;22.00;85.00
24902;DHT22;31328;51.402;0.016;2023-07-20T10:39:53;21.90;85.00
24902;DHT22;31328;51.402;0.016;2023-07-20T10:42:12;21.90;84.70
24902;DHT22;31328;51.402;0.016;2023-07-20T10:44:41;21.80;84.30
24902;DHT22;31328;51.402;0.016;2023-07-20T10:47:09;21.70;84.70
24902;DHT22;31328;51.402;0.016;2023-07-20T10:49:35;21.70;84.60
24902;DHT22;31328;51.402;0.016;2023-07-20T10:52:21;21.70;84.50
24902;DHT22;31328;51.402;0.016;2023-07-20T10:54:47;21.80;84.30
24902;DHT22;31328;51.402;0.016;2023-07-20T10:57:30;22.00;83.60
24902;DHT22;31328;51.402;0.016;2023-07-20T11:00:30;22.10;82.90
24902;DHT22;31328;51.402;0.016;2023-07-20T11:02:49;22.30;82.40
24902;DHT22;31328;51.402;0.016;2023-07-20T11:08:14;22.50;81.70
24902;DHT22;31328;51.402;0.016;2023-07-20T11:10:50;22.70;81.40
24902;DHT22;31328;51.402;0.016;2023-07-20T11:13:36;22.90;81.30
24902;DHT22;31328;51.402;0.016;2023-07-20T11:16:19;23.00;80.90
24902;DHT22;31328;51.402;0.016;2023-07-20T11:18:45;23.10;80.70
24902;DHT22;31328;51.402;0.016;2023-07-20T11:21:12;23.10;79.90
24902;DHT22;31328;51.402;0.016;2023-07-20T11:23:38;23.20;79.60
24902;DHT22;31328;51.402;0.016;2023-07-20T11:26:05;23.30;79.20
24902;DHT22;31328;51.402;0.016;2023-07-20T11:28:31;23.30;78.90
24902;DHT22;31328;51.402;0.016;2023-07-20T11:30:57;23.40;78.60
24902;DHT22;31328;51.402;0.016;2023-07-20T11:33:23;23.50;78.70
24902;DHT22;31328;51.402;0.016;2023-07-20T11:35:49;23.60;78.50
24902;DHT22;31328;51.402;0.016;2023-07-20T11:38:19;23.60;77.60
24902;DHT22;31328;51.402;0.016;2023-07-20T11:40:45;23.70;77.90
24902;DHT22;31328;51.402;0.016;2023-07-20T11:43:14;23.60;77.50
24902;DHT22;31328;51.402;0.016;2023-07-20T11:45:41;23.50;78.00
24902;DHT22;31328;51.402;0.016;2023-07-20T11:48:07;23.50;77.90
24902;DHT22;31328;51.402;0.016;2023-07-20T11:50:39;23.50;77.70
24902;DHT22;31328;51.402;0.016;2023-07-20T11:53:06;23.60;77.20
24902;DHT22;31328;51.402;0.016;2023-07-20T11:55:32;23.60;77.20
24902;DHT22;31328;51.402;0.016;2023-07-20T11:58:05;23.70;76.10
24902;DHT22;31328;51.402;0.016;2023-07-20T12:00:34;23.60;76.30
24902;DHT22;31328;51.402;0.016;2023-07-20T12:03:00;23.50;76.20
24902;DHT22;31328;51.402;0.016;2023-07-20T12:05:27;23.40;76.10
24902;DHT22;31328;51.402;0.016;2023-07-20T12:07:54;23.30;76.40
24902;DHT22;31328;51.402;0.016;2023-07-20T12:10:27;23.30;76.60
24902;DHT22;31328;51.402;0.016;2023-07-20T12:12:54;23.30;76.80
24902;DHT22;31328;51.402;0.016;2023-07-20T12:15:24;23.30;76.10
24902;DHT22;31328;51.402;0.016;2023-07-20T12:17:58;23.40;76.30
24902;DHT22;31328;51.402;0.016;2023-07-20T12:20:26;23.40;75.40
24902;DHT22;31328;51.402;0.016;2023-07-20T12:22:52;23.40;75.50
24902;DHT22;31328;51.402;0.016;2023-07-20T12:25:18;23.40;75.70
24902;DHT22;31328;51.402;0.016;2023-07-20T12:27:45;23.40;75.40
24902;DHT22;31328;51.402;0.016;2023-07-20T12:30:13;23.50;75.00
24902;DHT22;31328;51.402;0.016;2023-07-20T12:32:39;23.50;74.80
24902;DHT22;31328;51.402;0.016;2023-07-20T12:35:05;23.60;74.80
24902;DHT22;31328;51.402;0.016;2023-07-20T12:37:32;23.70;74.60
24902;DHT22;31328;51.402;0.016;2023-07-20T12:39:58;23.70;74.10
24902;DHT22;31328;51.402;0.016;2023-07-20T12:42:24;23.80;74.20
24902;DHT22;31328;51.402;0.016;2023-07-20T12:44:50;23.80;73.80
24902;DHT22;31328;51.402;0.016;2023-07-20T12:47:17;23.80;73.40
24902;DHT22;31328;51.402;0.016;2023-07-20T12:49:44;23.90;73.40
24902;DHT22;31328;51.402;0.016;2023-07-20T12:52:13;23.90;73.10
24902;DHT22;31328;51.402;0.016;2023-07-20T12:54:39;24.00;73.00
24902;DHT22;31328;51.402;0.016;2023-07-20T12:57:06;24.10;73.00
24902;DHT22;31328;51.402;0.016;2023-07-20T12:59:32;24.20;72.80
24902;DHT22;31328;51.402;0.016;2023-07-20T13:01:58;24.30;72.70
24902;DHT22;31328;51.402;0.016;2023-07-20T13:04:24;24.30;72.40
24902;DHT22;31328;51.402;0.016;2023-07-20T13:06:51;24.40;72.20
24902;DHT22;31328;51.402;0.016;2023-07-20T13:09:17;24.40;71.80
24902;DHT22;31328;51.402;0.016;2023-07-20T13:11:43;24.40;71.60
24902;DHT22;31328;51.402;0.016;2023-07-20T13:14:10;24.30;71.80
24902;DHT22;31328;51.402;0.016;2023-07-20T13:16:37;24.20;71.90
24902;DHT22;31328;51.402;0.016;2023-07-20T13:19:03;24.10;71.60
24902;DHT22;31328;51.402;0.016;2023-07-20T13:21:29;24.00;71.70
24902;DHT22;31328;51.402;0.016;2023-07-20T13:23:56;23.90;71.80
24902;DHT22;31328;51.402;0.016;2023-07-20T13:26:22;23.90;71.20
24902;DHT22;31328;51.402;0.016;2023-07-20T13:28:48;24.00;71.50
24902;DHT22;31328;51.402;0.016;2023-07-20T13:31:14;24.10;71.20
24902;DHT22;31328;51.402;0.016;2023-07-20T13:33:40;24.20;70.70
24902;DHT22;31328;51.402;0.016;2023-07-20T13:36:06;24.30;70.40
24902;DHT22;31328;51.402;0.016;2023-07-20T13:38:32;24.40;70.10
24902;DHT22;31328;51.402;0.016;2023-07-20T13:40:58;24.50;69.90
24902;DHT22;31328;51.402;0.016;2023-07-20T13:43:24;24.60;70.00
24902;DHT22;31328;51.402;0.016;2023-07-20T13:45:51;24.70;69.70
24902;DHT22;31328;51.402;0.016;2023-07-20T13:48:17;24.70;69.40
24902;DHT22;31328;51.402;0.016;2023-07-20T13:50:45;24.70;69.00
24902;DHT22;31328;51.402;0.016;2023-07-20T13:53:11;24.60;68.70
24902;DHT22;31328;51.402;0.016;2023-07-20T13:55:38;24.60;68.50
24902;DHT22;31328;51.402;0.016;2023-07-20T13:58:05;24.40;68.20
24902;DHT22;31328;51.402;0.016;2023-07-20T14:00:31;24.30;68.40
24902;DHT22;31328;51.402;0.016;2023-07-20T14:02:59;24.20;68.00
24902;DHT22;31328;51.402;0.016;2023-07-20T14:05:25;24.10;68.30
24902;DHT22;31328;51.402;0.016;2023-07-20T14:07:51;24.00;68.20
24902;DHT22;31328;51.402;0.016;2023-07-20T14:10:17;23.90;68.10
24902;DHT22;31328;51.402;0.016;2023-07-20T14:12:45;23.90;67.50
24902;DHT22;31328;51.402;0.016;2023-07-20T14:15:11;23.90;67.80
24902;DHT22;31328;51.402;0.016;2023-07-20T14:17:37;23.90;67.50
24902;DHT22;31328;51.402;0.016;2023-07-20T14:20:03;23.80;67.20
24902;DHT22;31328;51.402;0.016;2023-07-20T14:22:34;23.70;67.40
24902;DHT22;31328;51.402;0.016;2023-07-20T14:25:00;23.70;67.20
24902;DHT22;31328;51.402;0.016;2023-07-20T14:27:26;23.60;67.30
24902;DHT22;31328;51.402;0.016;2023-07-20T14:29:52;23.50;66.90
24902;DHT22;31328;51.402;0.016;2023-07-20T14:32:19;23.50;67.20
24902;DHT22;31328;51.402;0.016;2023-07-20T14:34:45;23.50;67.20
24902;DHT22;31328;51.402;0.016;2023-07-20T14:37:11;23.50;66.90
24902;DHT22;31328;51.402;0.016;2023-07-20T14:39:38;23.60;67.10
24902;DHT22;31328;51.402;0.016;2023-07-20T14:42:04;23.60;66.80
24902;DHT22;31328;51.402;0.016;2023-07-20T14:44:32;23.60;66.90
24902;DHT22;31328;51.402;0.016;2023-07-20T14:46:58;23.50;66.80
24902;DHT22;31328;51.402;0.016;2023-07-20T14:49:25;23.50;66.80
24902;DHT22;31328;51.402;0.016;2023-07-20T14:51:51;23.50;67.80
24902;DHT22;31328;51.402;0.016;2023-07-20T14:54:19;23.50;67.20
24902;DHT22;31328;51.402;0.016;2023-07-20T14:56:48;23.50;67.30
24902;DHT22;31328;51.402;0.016;2023-07-20T14:59:14;23.60;67.00
24902;DHT22;31328;51.402;0.016;2023-07-20T15:01:41;23.60;66.90
24902;DHT22;31328;51.402;0.016;2023-07-20T15:04:07;23.60;66.90
24902;DHT22;31328;51.402;0.016;2023-07-20T15:06:33;23.60;66.90
24902;DHT22;31328;51.402;0.016;2023-07-20T15:08:59;23.60;66.60
24902;DHT22;31328;51.402;0.016;2023-07-20T15:11:26;23.60;66.50
24902;DHT22;31328;51.402;0.016;2023-07-20T15:13:52;23.60;66.40
24902;DHT22;31328;51.402;0.016;2023-07-20T15:16:19;23.50;65.90
24902;DHT22;31328;51.402;0.016;2023-07-20T15:18:45;23.50;66.20
24902;DHT22;31328;51.402;0.016;2023-07-20T15:21:11;23.50;66.50
24902;DHT22;31328;51.402;0.016;2023-07-20T15:23:37;23.70;66.60
24902;DHT22;31328;51.402;0.016;2023-07-20T15:26:04;23.70;65.50
24902;DHT22;31328;51.402;0.016;2023-07-20T15:28:30;23.80;65.70
24902;DHT22;31328;51.402;0.016;2023-07-20T15:31:02;23.80;65.10
24902;DHT22;31328;51.402;0.016;2023-07-20T15:33:29;23.80;64.90
24902;DHT22;31328;51.402;0.016;2023-07-20T15:35:55;23.90;64.60
24902;DHT22;31328;51.402;0.016;2023-07-20T15:38:22;23.90;64.40
24902;DHT22;31328;51.402;0.016;2023-07-20T15:40:48;23.90;65.10
24902;DHT22;31328;51.402;0.016;2023-07-20T15:43:17;23.90;65.40